Time;durP1;ratioP1;P1;durP2;ratioP2;P2;SDS_P1;SDS_P2;PMS_P1;PMS_P2;Temp;Humidity;BMP_temperature;BMP_pressure;BME280_temperature;BME280_humidity;BME280_pressure;Samples;Min_cycle;Max_cycle;Signal;HPM_P1;HPM_P2
2023/07/30 00:02:06;;;;;;;32.42;9.30;;;;;;;;;;5051100;28;20408;-59
2023/07/30 00:04:32;;;;;;;28.77;8.65;;;;;;;;;;5049903;28;20059;-59
2023/07/30 00:06:58;;;;;;;33.55;9.20;;;;;;;;;;5050405;28;20493;-58
2023/07/30 00:09:24;;;;;;;24.13;7.65;;;;;;;;;;5049843;28;20431;-58
2023/07/30 00:11:50;;;;;;;35.83;8.68;;;;;;;;;;5051409;28;20056;-58
2023/07/30 00:14:17;;;;;;;26.48;8.57;;;;;;;;;;5054017;28;20049;-58
2023/07/30 00:16:43;;;;;;;30.02;8.13;;;;;;;;;;5057423;28;20488;-59
2023/07/30 00:19:10;;;;;;;28.55;7.97;;;;;;;;;;5050053;28;20044;-58
2023/07/30 00:21:36;;;;;;;23.23;7.75;;;;;;;;;;5052824;28;20041;-59
2023/07/30 00:24:02;;;;;;;35.95;8.10;;;;;;;;;;5051207;28;20060;-58
2023/07/30 00:26:29;;;;;;;44.78;8.93;;;;;;;;;;5054253;28;20092;-58
2023/07/30 00:28:56;;;;;;;35.70;8.02;;;;;;;;;;5052458;28;20114;-58
2023/07/30 00:31:22;;;;;;;32.92;8.75;;;;;;;;;;5060018;28;20059;-58
2023/07/30 00:33:48;;;;;;;31.20;7.63;;;;;;;;;;5051029;28;20043;-58
2023/07/30 00:36:14;;;;;;;32.40;9.15;;;;;;;;;;5049124;28;20126;-58
2023/07/30 00:38:40;;;;;;;30.98;8.40;;;;;;;;;;5050195;28;20071;-58
2023/07/30 00:41:06;;;;;;;29.98;8.18;;;;;;;;;;5060908;28;20037;-58
2023/07/30 00:43:33;;;;;;;26.23;7.20;;;;;;;;;;5053674;28;20127;-58
2023/07/30 00:45:59;;;;;;;23.98;7.80;;;;;;;;;;5054895;28;20415;-58
2023/07/30 00:48:25;;;;;;;30.98;7.90;;;;;;;;;;5055338;28;20047;-58
2023/07/30 00:50:51;;;;;;;33.28;7.65;;;;;;;;;;5054214;28;20044;-59
2023/07/30 00:53:19;;;;;;;34.65;8.48;;;;;;;;;;5054612;28;20056;-58
2023/07/30 00:55:45;;;;;;;30.90;8.15;;;;;;;;;;5053690;28;20045;-58
2023/07/30 00:58:11;;;;;;;36.58;9.07;;;;;;;;;;5055925;28;20037;-58
2023/07/30 01:00:38;;;;;;;33.10;9.20;;;;;;;;;;5053278;28;20052;-58
2023/07/30 01:03:04;;;;;;;32.45;9.02;;;;;;;;;;5054153;28;20052;-58
2023/07/30 01:05:30;;;;;;;28.55;8.00;;;;;;;;;;5056910;28;20049;-58
2023/07/30 01:07:56;;;;;;;38.42;9.40;;;;;;;;;;5058163;28;20082;-59
2023/07/30 01:10:23;;;;;;;41.08;10.88;;;;;;;;;;5051994;28;20041;-58
2023/07/30 01:12:49;;;;;;;40.42;9.18;;;;;;;;;;5054284;28;20142;-58
2023/07/30 01:15:16;;;;;;;33.22;8.63;;;;;;;;;;5058201;28;20051;-58
2023/07/30 01:17:42;;;;;;;35.28;8.27;;;;;;;;;;5053351;28;20404;-58
2023/07/30 01:20:09;;;;;;;38.80;8.77;;;;;;;;;;5053133;28;20053;-58
2023/07/30 01:22:35;;;;;;;39.85;9.57;;;;;;;;;;5056590;28;20124;-58
2023/07/30 01:25:01;;;;;;;38.55;8.88;;;;;;;;;;5053099;28;20128;-58
2023/07/30 01:27:29;;;;;;;48.22;10.80;;;;;;;;;;5051279;28;20045;-58
2023/07/30 01:30:08;;;;;;;36.58;9.57;;;;;;;;;;5053719;28;20045;-58
2023/07/30 01:32:35;;;;;;;34.00;9.73;;;;;;;;;;5054317;28;20124;-59
2023/07/30 01:35:02;;;;;;;41.70;8.63;;;;;;;;;;5054338;28;20055;-58
2023/07/30 01:37:30;;;;;;;37.38;8.98;;;;;;;;;;5052809;28;20089;-58
2023/07/30 01:39:56;;;;;;;34.40;8.65;;;;;;;;;;5058122;28;20718;-58
2023/07/30 01:42:28;;;;;;;42.20;8.57;;;;;;;;;;5059837;28;20086;-58
2023/07/30 01:44:54;;;;;;;35.92;9.05;;;;;;;;;;5072406;28;20043;-58
2023/07/30 01:47:20;;;;;;;36.83;9.05;;;;;;;;;;5051615;28;20403;-58
2023/07/30 01:49:46;;;;;;;40.13;9.10;;;;;;;;;;5054850;28;20124;-59
2023/07/30 01:52:12;;;;;;;26.63;7.32;;;;;;;;;;5058403;28;20067;-59
2023/07/30 01:54:39;;;;;;;31.42;8.10;;;;;;;;;;5065358;28;20500;-59
2023/07/30 01:57:05;;;;;;;42.15;8.85;;;;;;;;;;5064653;28;20112;-58
2023/07/30 01:59:31;;;;;;;29.50;7.22;;;;;;;;;;5076925;28;20036;-58
2023/07/30 02:01:57;;;;;;;41.10;8.20;;;;;;;;;;5068904;28;20123;-58
2023/07/30 02:04:24;;;;;;;30.77;8.05;;;;;;;;;;5067952;28;20056;-58
2023/07/30 02:06:50;;;;;;;33.28;7.43;;;;;;;;;;5063725;28;20499;-59
2023/07/30 02:09:16;;;;;;;34.95;8.15;;;;;;;;;;5072738;28;20066;-58
2023/07/30 02:11:42;;;;;;;34.80;7.90;;;;;;;;;;5065149;28;20141;-59
2023/07/30 02:14:10;;;;;;;33.83;7.82;;;;;;;;;;5058608;28;20040;-59
2023/07/30 02:16:36;;;;;;;32.47;7.53;;;;;;;;;;5067236;28;20095;-59
2023/07/30 02:19:03;;;;;;;26.00;6.55;;;;;;;;;;5066118;28;20127;-58
2023/07/30 02:21:32;;;;;;;33.80;7.57;;;;;;;;;;5064970;28;20046;-58
2023/07/30 02:23:58;;;;;;;29.67;7.10;;;;;;;;;;5053971;28;20048;-59
2023/07/30 02:26:24;;;;;;;30.52;7.50;;;;;;;;;;5077141;28;20076;-59
2023/07/30 02:28:50;;;;;;;34.30;8.27;;;;;;;;;;5055155;28;20071;-58
2023/07/30 02:31:16;;;;;;;38.15;8.00;;;;;;;;;;5069258;28;20044;-59
2023/07/30 02:33:43;;;;;;;32.60;6.85;;;;;;;;;;5071074;28;20031;-58
2023/07/30 02:36:09;;;;;;;31.73;7.63;;;;;;;;;;5065234;28;20044;-58
2023/07/30 02:38:35;;;;;;;32.80;7.30;;;;;;;;;;5076364;28;20123;-58
2023/07/30 02:41:01;;;;;;;30.00;6.82;;;;;;;;;;5060940;28;20557;-59
2023/07/30 02:43:27;;;;;;;33.70;7.55;;;;;;;;;;5056878;28;20067;-59
2023/07/30 02:45:53;;;;;;;31.05;7.30;;;;;;;;;;5073548;28;20052;-59
2023/07/30 02:48:20;;;;;;;33.10;7.57;;;;;;;;;;5069844;28;20071;-59
2023/07/30 02:50:46;;;;;;;37.22;8.00;;;;;;;;;;5063129;28;20040;-59
2023/07/30 02:53:12;;;;;;;34.45;8.02;;;;;;;;;;5065010;28;20484;-58
2023/07/30 02:55:38;;;;;;;29.50;7.13;;;;;;;;;;5073956;28;20443;-59
2023/07/30 02:58:04;;;;;;;32.67;7.72;;;;;;;;;;5065787;28;20032;-58
2023/07/30 03:00:30;;;;;;;32.78;7.65;;;;;;;;;;5063507;28;20055;-58
2023/07/30 03:02:57;;;;;;;37.78;7.80;;;;;;;;;;5067120;28;20040;-59
2023/07/30 03:05:23;;;;;;;32.50;7.20;;;;;;;;;;5053504;28;20060;-58
2023/07/30 03:07:49;;;;;;;34.65;7.30;;;;;;;;;;5054856;28;20089;-58
2023/07/30 03:10:15;;;;;;;32.47;7.47;;;;;;;;;;5052158;28;20086;-58
2023/07/30 03:12:42;;;;;;;27.30;7.07;;;;;;;;;;5050422;28;20049;-58
2023/07/30 03:15:08;;;;;;;34.30;7.38;;;;;;;;;;5051629;28;20496;-58
2023/07/30 03:17:34;;;;;;;33.53;7.15;;;;;;;;;;5057586;28;20075;-58
2023/07/30 03:20:00;;;;;;;25.27;6.53;;;;;;;;;;5053746;28;20135;-58
2023/07/30 03:22:26;;;;;;;27.35;6.63;;;;;;;;;;5050673;28;20374;-58
2023/07/30 03:24:53;;;;;;;28.50;6.68;;;;;;;;;;5051449;28;20119;-58
2023/07/30 03:27:19;;;;;;;33.35;8.25;;;;;;;;;;5048703;28;20056;-58
2023/07/30 03:29:45;;;;;;;29.92;6.90;;;;;;;;;;5054289;28;20113;-58
2023/07/30 03:32:11;;;;;;;33.63;6.68;;;;;;;;;;5050163;28;20056;-59
2023/07/30 03:34:37;;;;;;;26.90;6.28;;;;;;;;;;5061485;28;20515;-58
2023/07/30 03:37:04;;;;;;;24.75;6.20;;;;;;;;;;5054086;28;20033;-58
2023/07/30 03:39:30;;;;;;;27.02;6.43;;;;;;;;;;5050411;28;20108;-59
2023/07/30 03:41:56;;;;;;;25.52;5.60;;;;;;;;;;5060538;28;20048;-58
2023/07/30 03:44:22;;;;;;;29.67;6.22;;;;;;;;;;5062176;28;20543;-59
2023/07/30 03:46:49;;;;;;;21.40;6.22;;;;;;;;;;5070079;28;20053;-58
2023/07/30 03:49:15;;;;;;;29.95;6.93;;;;;;;;;;5053094;28;20052;-58
2023/07/30 03:51:41;;;;;;;21.15;5.70;;;;;;;;;;5052144;28;20050;-58
2023/07/30 03:54:07;;;;;;;29.05;6.82;;;;;;;;;;5060807;28;20068;-58
2023/07/30 03:56:33;;;;;;;32.10;6.32;;;;;;;;;;5050908;28;20411;-58
2023/07/30 03:58:59;;;;;;;21.52;5.38;;;;;;;;;;5051475;28;20037;-58
2023/07/30 04:01:26;;;;;;;31.27;5.88;;;;;;;;;;5053487;28;20124;-58
2023/07/30 04:03:52;;;;;;;21.77;5.70;;;;;;;;;;5050725;28;20483;-58
2023/07/30 04:06:18;;;;;;;21.50;5.90;;;;;;;;;;5050651;28;20067;-59
2023/07/30 04:08:44;;;;;;;25.80;5.78;;;;;;;;;;5048721;28;20408;-59
2023/07/30 04:11:10;;;;;;;23.88;5.10;;;;;;;;;;5051595;28;20131;-58
2023/07/30 04:13:36;;;;;;;25.83;5.07;;;;;;;;;;5049898;28;20049;-59
2023/07/30 04:16:03;;;;;;;27.38;5.10;;;;;;;;;;5055276;28;20089;-58
2023/07/30 04:18:29;;;;;;;29.83;5.57;;;;;;;;;;5058475;28;20411;-58
2023/07/30 04:20:56;;;;;;;24.90;5.63;;;;;;;;;;5061357;28;20031;-58
2023/07/30 04:23:22;;;;;;;20.40;5.05;;;;;;;;;;5061002;28;20178;-58
2023/07/30 04:25:51;;;;;;;26.17;4.65;;;;;;;;;;5049204;28;20125;-59
2023/07/30 04:28:17;;;;;;;15.68;4.43;;;;;;;;;;5051528;28;20059;-58
2023/07/30 04:30:46;;;;;;;19.48;5.03;;;;;;;;;;5048812;28;20041;-58
2023/07/30 04:33:13;;;;;;;21.33;5.22;;;;;;;;;;5065021;28;20098;-59
2023/07/30 04:35:40;;;;;;;22.38;4.90;;;;;;;;;;5051842;28;20429;-58
2023/07/30 04:38:06;;;;;;;20.50;4.93;;;;;;;;;;5049505;28;20457;-58
2023/07/30 04:40:32;;;;;;;23.13;4.75;;;;;;;;;;5050983;28;20123;-59
2023/07/30 04:42:58;;;;;;;15.80;3.80;;;;;;;;;;5049196;28;20047;-59
2023/07/30 04:45:24;;;;;;;16.95;4.00;;;;;;;;;;5058686;28;20401;-58
2023/07/30 04:47:51;;;;;;;15.88;3.40;;;;;;;;;;5048352;28;20171;-59
2023/07/30 04:50:17;;;;;;;21.85;3.92;;;;;;;;;;5054552;28;20048;-59
2023/07/30 04:52:43;;;;;;;16.80;3.35;;;;;;;;;;5052936;28;20127;-58
2023/07/30 04:55:09;;;;;;;16.73;2.92;;;;;;;;;;5051186;28;20519;-59
2023/07/30 04:57:35;;;;;;;15.55;3.20;;;;;;;;;;5049527;28;20056;-58
2023/07/30 05:00:01;;;;;;;13.20;2.83;;;;;;;;;;5053499;28;20047;-58
2023/07/30 05:02:28;;;;;;;14.25;2.60;;;;;;;;;;5049097;28;20465;-59
2023/07/30 05:04:54;;;;;;;19.23;3.90;;;;;;;;;;5052059;28;20052;-58
2023/07/30 05:07:20;;;;;;;12.60;2.65;;;;;;;;;;5047579;28;20433;-59
2023/07/30 05:09:46;;;;;;;13.23;2.92;;;;;;;;;;5049868;28;20043;-58
2023/07/30 05:12:12;;;;;;;10.45;3.17;;;;;;;;;;5048926;28;20124;-58
2023/07/30 05:14:38;;;;;;;17.35;3.53;;;;;;;;;;5047840;28;20040;-58
2023/07/30 05:17:10;;;;;;;13.77;3.20;;;;;;;;;;5070192;28;20077;-58
2023/07/30 05:19:40;;;;;;;20.45;3.35;;;;;;;;;;5055257;28;20127;-58
2023/07/30 05:22:07;;;;;;;12.32;2.20;;;;;;;;;;5061973;28;20037;-58
2023/07/30 05:24:34;;;;;;;11.30;2.53;;;;;;;;;;5055589;28;20083;-59
2023/07/30 05:27:00;;;;;;;22.98;4.10;;;;;;;;;;5067386;28;20044;-59
2023/07/30 05:29:26;;;;;;;15.73;3.22;;;;;;;;;;5068065;28;20040;-59
2023/07/30 05:31:52;;;;;;;21.63;3.40;;;;;;;;;;5063578;28;20120;-59
2023/07/30 05:34:18;;;;;;;15.38;2.50;;;;;;;;;;5071283;28;20044;-59
2023/07/30 05:36:44;;;;;;;17.17;3.30;;;;;;;;;;5067806;28;20048;-59
2023/07/30 05:39:11;;;;;;;13.60;2.80;;;;;;;;;;5062636;28;20045;-59
2023/07/30 05:41:37;;;;;;;12.10;2.88;;;;;;;;;;5060201;28;20095;-59
2023/07/30 05:44:03;;;;;;;16.45;3.60;;;;;;;;;;5067212;28;20037;-59
2023/07/30 05:46:29;;;;;;;23.10;3.35;;;;;;;;;;5069947;28;20064;-59
2023/07/30 05:48:55;;;;;;;12.05;3.22;;;;;;;;;;5053225;28;20037;-59
2023/07/30 05:51:22;;;;;;;14.13;3.65;;;;;;;;;;5057050;28;20040;-59
2023/07/30 05:53:48;;;;;;;16.00;3.78;;;;;;;;;;5057907;28;20039;-59
2023/07/30 05:56:14;;;;;;;16.45;3.65;;;;;;;;;;5062997;28;20075;-59
2023/07/30 05:58:40;;;;;;;13.25;2.65;;;;;;;;;;5056731;28;20061;-59
2023/07/30 06:01:07;;;;;;;19.60;2.72;;;;;;;;;;5055732;28;20504;-69
2023/07/30 06:03:33;;;;;;;12.10;2.75;;;;;;;;;;5051780;28;20376;-59
2023/07/30 06:06:01;;;;;;;15.68;3.38;;;;;;;;;;5052932;28;20049;-59
2023/07/30 06:08:29;;;;;;;10.93;2.63;;;;;;;;;;5052389;28;20128;-59
2023/07/30 06:10:55;;;;;;;17.40;2.97;;;;;;;;;;5059001;28;20127;-59
2023/07/30 06:13:21;;;;;;;13.25;2.58;;;;;;;;;;5061976;28;20037;-59
2023/07/30 06:15:48;;;;;;;19.27;3.97;;;;;;;;;;5051891;28;20147;-59
2023/07/30 06:18:14;;;;;;;13.32;3.03;;;;;;;;;;5055549;28;20527;-59
2023/07/30 06:20:40;;;;;;;15.30;3.42;;;;;;;;;;5055830;28;20122;-59
2023/07/30 06:23:06;;;;;;;13.65;3.40;;;;;;;;;;5055491;28;20178;-59
2023/07/30 06:25:33;;;;;;;20.70;4.53;;;;;;;;;;5059677;28;20056;-59
2023/07/30 06:27:59;;;;;;;14.88;2.88;;;;;;;;;;5072156;28;20400;-58
2023/07/30 06:30:25;;;;;;;17.65;2.72;;;;;;;;;;5065695;28;20442;-59
2023/07/30 06:32:51;;;;;;;15.30;3.17;;;;;;;;;;5062820;28;20048;-59
2023/07/30 06:35:18;;;;;;;18.23;3.35;;;;;;;;;;5066034;28;20043;-59
2023/07/30 06:37:44;;;;;;;17.20;3.00;;;;;;;;;;5062779;28;20044;-59
2023/07/30 06:40:10;;;;;;;14.02;3.10;;;;;;;;;;5073771;28;20557;-59
2023/07/30 06:42:36;;;;;;;12.65;3.10;;;;;;;;;;5063425;28;20044;-59
2023/07/30 06:45:02;;;;;;;17.50;3.13;;;;;;;;;;5070876;28;20045;-59
2023/07/30 06:47:29;;;;;;;13.00;2.95;;;;;;;;;;5057164;28;20411;-59
2023/07/30 06:49:55;;;;;;;12.70;2.58;;;;;;;;;;5064676;28;20036;-59
2023/07/30 06:52:21;;;;;;;12.30;3.40;;;;;;;;;;5072074;28;20087;-59
2023/07/30 06:54:47;;;;;;;19.27;3.30;;;;;;;;;;5083087;28;20040;-59
2023/07/30 06:57:13;;;;;;;12.20;3.30;;;;;;;;;;5057412;28;20115;-59
2023/07/30 06:59:40;;;;;;;13.90;2.88;;;;;;;;;;5069002;28;20090;-60
2023/07/30 07:02:06;;;;;;;16.88;3.30;;;;;;;;;;5065561;28;20118;-59
2023/07/30 07:04:32;;;;;;;21.38;3.15;;;;;;;;;;5063272;28;20040;-59
2023/07/30 07:06:58;;;;;;;19.00;3.45;;;;;;;;;;5067071;28;20044;-59
2023/07/30 07:09:25;;;;;;;15.55;3.00;;;;;;;;;;5064825;28;20187;-59
2023/07/30 07:11:51;;;;;;;15.07;3.40;;;;;;;;;;5066746;28;20117;-59
2023/07/30 07:14:17;;;;;;;18.02;2.63;;;;;;;;;;5065763;28;20033;-59
2023/07/30 07:16:44;;;;;;;15.90;3.28;;;;;;;;;;5063903;28;20124;-59
2023/07/30 07:19:10;;;;;;;16.92;3.40;;;;;;;;;;5066450;28;20079;-59
2023/07/30 07:21:36;;;;;;;14.98;3.85;;;;;;;;;;5069548;28;20032;-59
2023/07/30 07:24:02;;;;;;;14.32;3.45;;;;;;;;;;5065315;28;20123;-59
2023/07/30 07:26:28;;;;;;;13.68;2.65;;;;;;;;;;5060244;28;20045;-59
2023/07/30 07:28:56;;;;;;;13.82;2.78;;;;;;;;;;5063998;28;20444;-59
2023/07/30 07:31:22;;;;;;;15.02;3.72;;;;;;;;;;5069211;28;20400;-59
2023/07/30 07:33:48;;;;;;;15.48;3.47;;;;;;;;;;5068444;28;20040;-59
2023/07/30 07:36:15;;;;;;;10.02;2.17;;;;;;;;;;5063331;28;20037;-59
2023/07/30 07:38:42;;;;;;;17.10;3.00;;;;;;;;;;5068310;28;20033;-59
2023/07/30 07:41:08;;;;;;;11.68;2.33;;;;;;;;;;5069412;28;20119;-59
2023/07/30 07:43:34;;;;;;;14.68;3.15;;;;;;;;;;5069873;28;20051;-59
2023/07/30 07:46:00;;;;;;;11.68;2.55;;;;;;;;;;5069257;28;20484;-59
2023/07/30 07:48:26;;;;;;;17.25;2.92;;;;;;;;;;5071184;28;20051;-59
2023/07/30 07:50:52;;;;;;;16.95;3.17;;;;;;;;;;5070974;28;20040;-59
2023/07/30 07:53:19;;;;;;;12.80;3.05;;;;;;;;;;5069765;28;20045;-59
2023/07/30 07:55:45;;;;;;;13.00;2.58;;;;;;;;;;5066062;28;20033;-59
2023/07/30 07:58:11;;;;;;;8.85;2.45;;;;;;;;;;5070012;28;20036;-59
2023/07/30 08:00:37;;;;;;;11.70;2.60;;;;;;;;;;5070140;28;20045;-59
2023/07/30 08:03:03;;;;;;;17.30;3.20;;;;;;;;;;5070596;28;20043;-59
2023/07/30 08:05:30;;;;;;;17.15;3.03;;;;;;;;;;5056347;28;20079;-59
2023/07/30 08:07:56;;;;;;;11.80;3.15;;;;;;;;;;5069962;28;20051;-61
2023/07/30 08:10:22;;;;;;;14.88;2.67;;;;;;;;;;5081311;28;20111;-59
2023/07/30 08:12:48;;;;;;;19.58;2.90;;;;;;;;;;5072549;28;20037;-59
2023/07/30 08:15:15;;;;;;;17.02;3.35;;;;;;;;;;5068220;28;20480;-59
2023/07/30 08:17:41;;;;;;;14.10;2.63;;;;;;;;;;5067267;28;20104;-59
2023/07/30 08:20:07;;;;;;;17.98;2.70;;;;;;;;;;5070619;28;20150;-59
2023/07/30 08:22:33;;;;;;;12.75;2.92;;;;;;;;;;5069704;28;20045;-59
2023/07/30 08:25:00;;;;;;;13.15;3.35;;;;;;;;;;5074476;28;20399;-59
2023/07/30 08:27:26;;;;;;;11.68;2.38;;;;;;;;;;5062207;28;20081;-59
2023/07/30 08:29:52;;;;;;;17.58;3.45;;;;;;;;;;5068244;28;20052;-60
2023/07/30 08:32:18;;;;;;;15.88;2.70;;;;;;;;;;5066284;28;20040;-59
2023/07/30 08:34:44;;;;;;;18.30;3.55;;;;;;;;;;5068356;28;20046;-61
2023/07/30 08:37:10;;;;;;;12.80;2.60;;;;;;;;;;5065856;28;20566;-60
2023/07/30 08:39:37;;;;;;;14.30;3.13;;;;;;;;;;5056636;28;20045;-59
2023/07/30 08:42:03;;;;;;;13.25;3.30;;;;;;;;;;5068391;28;20503;-59
2023/07/30 08:44:29;;;;;;;13.40;2.72;;;;;;;;;;5067311;28;20041;-59
2023/07/30 08:46:56;;;;;;;17.55;3.03;;;;;;;;;;5052251;28;20063;-60
2023/07/30 08:49:22;;;;;;;8.38;1.80;;;;;;;;;;5069518;28;20375;-60
2023/07/30 08:51:49;;;;;;;8.18;2.05;;;;;;;;;;5069598;28;20052;-60
2023/07/30 08:54:16;;;;;;;8.40;1.52;;;;;;;;;;5070381;28;20036;-60
2023/07/30 08:56:42;;;;;;;7.35;1.83;;;;;;;;;;5057256;28;20116;-60
2023/07/30 08:59:08;;;;;;;6.68;1.63;;;;;;;;;;5068685;28;20051;-60
2023/07/30 09:01:38;;;;;;;8.65;2.08;;;;;;;;;;5068042;28;20044;-60
2023/07/30 09:04:06;;;;;;;10.93;2.13;;;;;;;;;;5068038;28;20044;-59
2023/07/30 09:06:33;;;;;;;13.82;2.25;;;;;;;;;;5063706;28;20485;-59
2023/07/30 09:08:59;;;;;;;13.07;2.65;;;;;;;;;;5072557;28;20032;-60
2023/07/30 09:11:28;;;;;;;16.02;2.55;;;;;;;;;;5070818;28;20077;-59
2023/07/30 09:13:58;;;;;;;10.55;2.60;;;;;;;;;;5075582;28;20495;-60
2023/07/30 09:16:27;;;;;;;13.68;2.85;;;;;;;;;;5065219;28;20126;-60
2023/07/30 09:18:54;;;;;;;12.57;3.55;;;;;;;;;;5071423;28;20033;-60
2023/07/30 09:21:20;;;;;;;14.93;3.42;;;;;;;;;;5073556;28;20130;-59
2023/07/30 09:23:47;;;;;;;12.40;2.10;;;;;;;;;;5067312;28;20033;-60
2023/07/30 09:26:14;;;;;;;16.35;2.67;;;;;;;;;;5065086;28;20044;-60
2023/07/30 09:28:40;;;;;;;12.48;2.10;;;;;;;;;;5071632;28;20040;-60
2023/07/30 09:31:07;;;;;;;13.77;3.30;;;;;;;;;;5066162;28;20190;-60
2023/07/30 09:33:34;;;;;;;11.85;2.13;;;;;;;;;;5074974;28;20052;-60
2023/07/30 09:36:04;;;;;;;12.75;2.65;;;;;;;;;;5068018;28;20048;-60
2023/07/30 09:38:32;;;;;;;16.75;2.33;;;;;;;;;;5068497;28;20136;-60
2023/07/30 09:41:02;;;;;;;13.55;2.80;;;;;;;;;;5072316;28;20127;-60
2023/07/30 09:43:35;;;;;;;11.05;2.15;;;;;;;;;;5071956;28;20063;-60
2023/07/30 09:46:02;;;;;;;13.15;2.33;;;;;;;;;;5063851;28;20053;-60
2023/07/30 09:48:30;;;;;;;11.68;2.53;;;;;;;;;;5056191;28;20045;-60
2023/07/30 09:50:57;;;;;;;14.30;2.72;;;;;;;;;;5059260;28;20049;-60
2023/07/30 09:53:24;;;;;;;9.18;2.10;;;;;;;;;;5059077;28;20095;-60
2023/07/30 09:55:50;;;;;;;10.18;2.22;;;;;;;;;;5083100;28;20044;-60
2023/07/30 09:58:17;;;;;;;10.43;2.38;;;;;;;;;;5073258;28;20052;-60
2023/07/30 10:00:45;;;;;;;9.75;2.20;;;;;;;;;;5072225;28;20364;-59
2023/07/30 10:03:12;;;;;;;14.13;2.28;;;;;;;;;;5072780;28;20049;-60
2023/07/30 10:05:40;;;;;;;9.65;2.20;;;;;;;;;;5072233;28;20075;-60
2023/07/30 10:08:09;;;;;;;13.18;2.47;;;;;;;;;;5065517;28;20044;-60
2023/07/30 10:10:35;;;;;;;10.85;2.20;;;;;;;;;;5076534;28;20555;-60
2023/07/30 10:13:04;;;;;;;16.92;2.67;;;;;;;;;;5085209;28;20101;-60
2023/07/30 10:15:30;;;;;;;14.55;2.83;;;;;;;;;;5071190;28;20044;-60
2023/07/30 10:17:58;;;;;;;12.63;2.65;;;;;;;;;;5072863;28;20170;-60
2023/07/30 10:20:27;;;;;;;11.73;2.88;;;;;;;;;;5075148;28;20413;-60
2023/07/30 10:22:54;;;;;;;10.23;2.08;;;;;;;;;;5074873;28;20040;-60
2023/07/30 10:25:21;;;;;;;10.25;1.73;;;;;;;;;;5065076;28;20064;-60
2023/07/30 10:27:49;;;;;;;11.02;1.90;;;;;;;;;;5062185;28;20070;-61
2023/07/30 10:30:16;;;;;;;12.38;2.10;;;;;;;;;;5069465;28;20135;-60
2023/07/30 10:33:03;;;;;;;11.05;2.25;;;;;;;;;;5075837;28;20114;-60
2023/07/30 10:35:37;;;;;;;12.40;2.05;;;;;;;;;;5063272;28;20045;-60
2023/07/30 10:38:27;;;;;;;12.05;2.60;;;;;;;;;;5066742;28;20527;-61
2023/07/30 10:41:10;;;;;;;11.13;2.50;;;;;;;;;;5083146;28;20120;-61
2023/07/30 10:43:36;;;;;;;13.35;2.17;;;;;;;;;;5077095;28;20111;-61
2023/07/30 10:46:02;;;;;;;10.80;2.38;;;;;;;;;;5060871;28;20098;-61
2023/07/30 10:48:36;;;;;;;11.38;2.15;;;;;;;;;;5066172;28;20495;-61
2023/07/30 10:51:05;;;;;;;14.25;2.53;;;;;;;;;;5055361;28;20048;-61
2023/07/30 10:53:32;;;;;;;11.40;2.13;;;;;;;;;;5072069;28;20392;-61
2023/07/30 10:56:01;;;;;;;16.13;2.88;;;;;;;;;;5068460;28;20506;-61
2023/07/30 10:58:27;;;;;;;9.60;2.75;;;;;;;;;;5071820;28;20048;-61
2023/07/30 11:00:54;;;;;;;10.80;2.30;;;;;;;;;;5071957;28;20055;-61
2023/07/30 11:03:21;;;;;;;14.30;2.63;;;;;;;;;;5071003;28;20051;-61
2023/07/30 11:05:48;;;;;;;10.10;2.35;;;;;;;;;;5059084;28;20045;-61
2023/07/30 11:08:15;;;;;;;10.82;2.38;;;;;;;;;;5071337;28;20068;-61
2023/07/30 11:10:47;;;;;;;10.18;2.58;;;;;;;;;;5070841;28;20048;-61
2023/07/30 11:13:14;;;;;;;10.40;1.98;;;;;;;;;;5057896;28;20095;-75
2023/07/30 11:15:41;;;;;;;9.13;2.30;;;;;;;;;;5067172;28;20059;-61
2023/07/30 11:18:08;;;;;;;13.43;2.75;;;;;;;;;;5070055;28;20056;-61
2023/07/30 11:20:34;;;;;;;11.50;2.10;;;;;;;;;;5068712;28;20047;-61
2023/07/30 11:23:00;;;;;;;10.88;2.10;;;;;;;;;;5069735;28;20112;-61
2023/07/30 11:25:26;;;;;;;12.85;2.13;;;;;;;;;;5059870;28;20037;-61
2023/07/30 11:27:52;;;;;;;11.80;2.35;;;;;;;;;;5062656;28;20115;-60
2023/07/30 11:30:19;;;;;;;16.02;2.25;;;;;;;;;;5063357;28;20372;-61
2023/07/30 11:32:46;;;;;;;8.80;2.00;;;;;;;;;;5062187;28;20123;-61
2023/07/30 11:35:13;;;;;;;11.57;2.60;;;;;;;;;;5055415;28;20041;-60
2023/07/30 11:37:40;;;;;;;9.48;2.55;;;;;;;;;;5069793;28;20046;-60
2023/07/30 11:40:15;;;;;;;10.30;2.15;;;;;;;;;;5069035;28;20044;-61
2023/07/30 11:42:42;;;;;;;7.28;1.63;;;;;;;;;;5067303;28;20048;-75
2023/07/30 11:45:21;;;;;;;11.05;2.35;;;;;;;;;;5058259;28;20060;-61
2023/07/30 11:47:48;;;;;;;9.32;1.92;;;;;;;;;;5069494;28;20083;-61
2023/07/30 11:50:15;;;;;;;7.60;1.80;;;;;;;;;;5057278;28;20045;-61
2023/07/30 11:52:54;;;;;;;8.77;1.70;;;;;;;;;;5063349;28;20415;-61
2023/07/30 11:55:21;;;;;;;5.63;1.52;;;;;;;;;;5065867;28;20052;-61
2023/07/30 11:57:47;;;;;;;8.80;2.05;;;;;;;;;;5067528;28;20047;-61
2023/07/30 12:00:14;;;;;;;7.80;1.92;;;;;;;;;;5069390;28;20032;-61
2023/07/30 12:02:40;;;;;;;10.07;2.28;;;;;;;;;;5068712;28;20068;-60
2023/07/30 12:05:07;;;;;;;11.55;2.33;;;;;;;;;;5059999;28;20040;-61
2023/07/30 12:07:33;;;;;;;8.68;2.40;;;;;;;;;;5069646;28;20082;-61
2023/07/30 12:10:13;;;;;;;8.50;1.90;;;;;;;;;;5070613;28;20059;-61
2023/07/30 12:12:45;;;;;;;7.32;1.38;;;;;;;;;;5067594;28;20041;-60
2023/07/30 12:15:12;;;;;;;5.80;1.50;;;;;;;;;;5052631;28;20088;-61
2023/07/30 12:17:39;;;;;;;7.32;1.90;;;;;;;;;;5063042;28;20131;-61
2023/07/30 12:20:06;;;;;;;5.18;1.30;;;;;;;;;;5070761;28;20475;-60
2023/07/30 12:22:34;;;;;;;9.77;2.38;;;;;;;;;;5069385;28;20065;-61
2023/07/30 12:25:00;;;;;;;7.45;1.95;;;;;;;;;;5055869;28;20049;-61
2023/07/30 12:27:27;;;;;;;5.10;1.42;;;;;;;;;;5069838;28;20413;-61
2023/07/30 12:29:53;;;;;;;9.32;1.73;;;;;;;;;;5068473;28;20480;-61
2023/07/30 12:32:19;;;;;;;9.02;1.50;;;;;;;;;;5069611;28;20040;-61
2023/07/30 12:34:45;;;;;;;5.18;1.38;;;;;;;;;;5068999;28;20063;-61
2023/07/30 12:37:12;;;;;;;7.55;2.08;;;;;;;;;;5069830;28;20147;-61
2023/07/30 12:39:38;;;;;;;10.27;2.35;;;;;;;;;;5069768;28;20051;-60
2023/07/30 12:42:04;;;;;;;6.78;1.70;;;;;;;;;;5071987;28;20039;-60
2023/07/30 12:44:30;;;;;;;8.68;2.00;;;;;;;;;;5073404;28;20116;-61
2023/07/30 12:46:56;;;;;;;7.10;1.65;;;;;;;;;;5073637;28;20067;-60
2023/07/30 12:49:23;;;;;;;7.85;1.70;;;;;;;;;;5073481;28;20052;-61
2023/07/30 12:51:49;;;;;;;11.30;2.20;;;;;;;;;;5074327;28;20040;-61
2023/07/30 12:54:16;;;;;;;8.52;1.88;;;;;;;;;;5073616;28;20048;-60
2023/07/30 12:56:43;;;;;;;7.20;1.75;;;;;;;;;;5065325;28;20063;-61
2023/07/30 12:59:09;;;;;;;8.18;1.50;;;;;;;;;;5073447;28;20048;-60
2023/07/30 13:01:35;;;;;;;6.57;1.38;;;;;;;;;;5073976;28;20063;-61
2023/07/30 13:04:01;;;;;;;8.27;2.17;;;;;;;;;;5073375;28;20044;-61
2023/07/30 13:06:27;;;;;;;8.38;1.98;;;;;;;;;;5074096;28;20491;-61
2023/07/30 13:08:54;;;;;;;6.65;1.80;;;;;;;;;;5074082;28;20441;-60
2023/07/30 13:11:20;;;;;;;5.28;1.65;;;;;;;;;;5072781;28;20040;-61
2023/07/30 13:13:46;;;;;;;7.30;1.75;;;;;;;;;;5064112;28;20368;-61
2023/07/30 13:16:12;;;;;;;9.73;2.05;;;;;;;;;;5071746;28;20058;-61
2023/07/30 13:18:38;;;;;;;11.10;1.75;;;;;;;;;;5073145;28;20049;-61
2023/07/30 13:21:05;;;;;;;10.25;2.28;;;;;;;;;;5071544;28;20127;-61
2023/07/30 13:23:31;;;;;;;10.57;1.40;;;;;;;;;;5068796;28;20040;-61
2023/07/30 13:25:58;;;;;;;8.20;1.45;;;;;;;;;;5064995;28;20052;-61
2023/07/30 13:28:24;;;;;;;9.60;1.88;;;;;;;;;;5077053;28;20036;-60
2023/07/30 13:30:50;;;;;;;9.55;2.25;;;;;;;;;;5072600;28;20114;-61
2023/07/30 13:33:17;;;;;;;10.48;1.60;;;;;;;;;;5073578;28;20063;-61
2023/07/30 13:35:43;;;;;;;7.55;1.63;;;;;;;;;;5069273;28;20040;-61
2023/07/30 13:38:09;;;;;;;7.20;2.00;;;;;;;;;;5073195;28;20037;-60
2023/07/30 13:40:35;;;;;;;7.95;2.28;;;;;;;;;;5071486;28;20546;-60
2023/07/30 13:43:01;;;;;;;9.77;2.35;;;;;;;;;;5073279;28;20504;-60
2023/07/30 13:45:28;;;;;;;12.02;2.42;;;;;;;;;;5067068;28;20037;-61
2023/07/30 13:47:54;;;;;;;8.82;1.50;;;;;;;;;;5072786;28;20052;-61
2023/07/30 13:50:20;;;;;;;9.02;2.17;;;;;;;;;;5072339;28;20502;-60
2023/07/30 13:52:47;;;;;;;10.82;1.95;;;;;;;;;;5071391;28;20040;-60
2023/07/30 13:55:13;;;;;;;8.50;1.90;;;;;;;;;;5067719;28;20049;-60
2023/07/30 13:57:39;;;;;;;9.70;2.70;;;;;;;;;;5064381;28;20033;-61
2023/07/30 14:00:06;;;;;;;7.63;1.70;;;;;;;;;;5070443;28;20199;-60
2023/07/30 14:02:32;;;;;;;10.70;1.65;;;;;;;;;;5071727;28;20056;-60
2023/07/30 14:04:58;;;;;;;8.18;2.25;;;;;;;;;;5072596;28;20131;-60
2023/07/30 14:07:24;;;;;;;8.93;2.22;;;;;;;;;;5070702;28;20064;-60
2023/07/30 14:09:50;;;;;;;8.98;1.80;;;;;;;;;;5076681;28;20028;-61
2023/07/30 14:12:17;;;;;;;8.23;1.75;;;;;;;;;;5057700;28;20138;-60
2023/07/30 14:14:43;;;;;;;8.95;1.70;;;;;;;;;;5070722;28;20045;-61
2023/07/30 14:17:10;;;;;;;9.52;2.25;;;;;;;;;;5071930;28;20055;-61
2023/07/30 14:19:36;;;;;;;7.05;1.30;;;;;;;;;;5072690;28;20041;-61
2023/07/30 14:22:02;;;;;;;7.60;1.52;;;;;;;;;;5074697;28;20411;-61
2023/07/30 14:24:28;;;;;;;8.27;2.10;;;;;;;;;;5063985;28;20488;-60
2023/07/30 14:26:54;;;;;;;9.63;2.33;;;;;;;;;;5069880;28;20044;-61
2023/07/30 14:29:21;;;;;;;7.38;1.42;;;;;;;;;;5072809;28;20032;-60
2023/07/30 14:31:47;;;;;;;11.60;2.20;;;;;;;;;;5069235;28;20146;-60